Time;durP1;ratioP1;P1;durP2;ratioP2;P2;SDS_P1;SDS_P2;PMS_P1;PMS_P2;Temp;Humidity;BMP_temperature;BMP_pressure;BME280_temperature;BME280_humidity;BME280_pressure;Samples;Min_cycle;Max_cycle;Signal;HPM_P1;HPM_P2
2022/01/12 00:00:05;;;;;;;123.32;49.63;;;3.30;99.90;;;;;;5112405;28;20087;-68
2022/01/12 00:02:31;;;;;;;119.68;49.92;;;3.50;99.90;;;;;;5111624;28;20050;-69
2022/01/12 00:04:57;;;;;;;118.68;49.65;;;;;;;;;;5111983;28;20507;-68
2022/01/12 00:07:27;;;;;;;112.47;49.35;;;;;;;;;;5113604;28;20105;-68
2022/01/12 00:09:52;;;;;;;126.68;51.40;;;3.20;99.90;;;;;;5111971;28;20055;-68
2022/01/12 00:12:18;;;;;;;144.40;54.38;;;3.40;99.90;;;;;;5113060;28;20449;-68
2022/01/12 00:14:44;;;;;;;121.00;51.08;;;;;;;;;;5128862;27;20047;-68
2022/01/12 00:17:10;;;;;;;126.80;52.17;;;;;;;;;;5113180;28;20383;-69
2022/01/12 00:19:35;;;;;;;127.97;52.75;;;3.30;99.90;;;;;;5112531;28;20044;-68
2022/01/12 00:22:01;;;;;;;119.03;51.20;;;3.30;99.90;;;;;;5113267;28;20399;-69
2022/01/12 00:24:40;;;;;;;139.43;53.55;;;;;;;;;;5113070;28;20487;-69
2022/01/12 00:35:20;;;;;;;146.38;56.30;;;;;;;;;;5111253;28;20054;-68
2022/01/12 00:37:46;;;;;;;151.30;57.13;;;3.20;99.90;;;;;;5111485;28;20099;-68
2022/01/12 00:40:13;;;;;;;144.38;54.47;;;;;;;;;;5112426;28;20160;-68
2022/01/12 00:42:41;;;;;;;162.57;59.03;;;;;;;;;;5110945;28;20051;-68
2022/01/12 00:45:08;;;;;;;154.70;55.88;;;3.70;99.90;;;;;;5110862;28;20044;-68
2022/01/12 00:47:35;;;;;;;163.38;55.50;;;3.30;99.90;;;;;;5111568;28;20050;-68
2022/01/12 00:50:01;;;;;;;148.70;56.03;;;;;;;;;;5127568;27;20408;-68
2022/01/12 00:52:28;;;;;;;175.82;60.63;;;3.20;99.90;;;;;;5093655;28;20043;-68
2022/01/12 00:54:54;;;;;;;188.63;60.88;;;;;;;;;;5128255;27;20399;-69
2022/01/12 00:57:21;;;;;;;203.57;63.08;;;2.90;99.90;;;;;;5110761;28;20035;-68
2022/01/12 00:59:47;;;;;;;189.18;62.28;;;;;;;;;;5111185;28;20039;-68
2022/01/12 01:02:14;;;;;;;149.90;56.97;;;3.10;99.90;;;;;;5110741;28;20052;-68
2022/01/12 01:04:44;;;;;;;198.80;63.78;;;;;;;;;;5112461;28;20118;-68
2022/01/12 01:07:09;;;;;;;166.52;60.88;;;2.90;99.90;;;;;;5093793;28;20062;-68
2022/01/12 01:09:39;;;;;;;196.38;65.28;;;3.30;99.90;;;;;;5110901;28;20035;-68
2022/01/12 01:12:06;;;;;;;145.63;55.35;;;3.20;99.90;;;;;;5110831;28;20039;-68
2022/01/12 01:14:45;;;;;;;172.07;61.05;;;3.20;99.90;;;;;;5110581;28;20127;-67
2022/01/12 01:25:32;;;;;;;142.52;55.50;;;3.40;99.90;;;;;;5110425;28;20059;-67
2022/01/12 01:28:02;;;;;;;;;;;4.80;99.90;;;;;;5111020;28;20047;-68
2022/01/12 01:30:28;;;;;;;158.95;57.95;;;3.20;99.90;;;;;;5112128;28;20007;-68
2022/01/12 01:32:57;;;;;;;162.65;58.65;;;3.30;99.90;;;;;;5110442;28;20561;-68
2022/01/12 01:35:26;;;;;;;146.98;57.88;;;3.30;99.90;;;;;;5111762;28;20089;-68
2022/01/12 01:37:52;;;;;;;155.68;58.55;;;3.00;99.90;;;;;;5110642;28;20562;-68
2022/01/12 01:40:18;;;;;;;143.90;55.40;;;;;;;;;;5111867;28;20118;-68
2022/01/12 01:53:58;;;;;;;138.23;55.22;;;3.60;99.90;;;;;;5110468;28;20132;-68
2022/01/12 01:56:24;;;;;;;118.57;52.90;;;3.60;99.90;;;;;;5109686;28;20054;-67
2022/01/12 01:58:50;;;;;;;106.15;48.72;;;3.40;99.90;;;;;;5109733;28;20067;-67
2022/01/12 02:01:16;;;;;;;115.25;52.63;;;3.40;99.90;;;;;;5110884;28;20031;-67
2022/01/12 02:03:43;;;;;;;113.38;49.85;;;3.20;99.90;;;;;;5109749;28;20059;-67
2022/01/12 02:06:10;;;;;;;115.90;49.95;;;3.20;99.90;;;;;;5109637;28;20055;-67
2022/01/12 02:08:36;;;;;;;110.75;50.05;;;3.20;99.90;;;;;;5109671;28;20057;-67
2022/01/12 02:11:02;;;;;;;110.97;49.60;;;3.30;99.90;;;;;;5092712;28;20055;-66
2022/01/12 02:13:30;;;;;;;126.72;51.92;;;3.20;99.90;;;;;;5110764;28;20122;-67
2022/01/12 02:15:58;;;;;;;127.50;52.13;;;3.90;99.90;;;;;;5110786;28;20078;-68
2022/01/12 02:40:28;;;;;;;195.40;62.80;;;3.40;99.90;;;;;;5113814;28;20422;-67
2022/01/12 02:43:42;;;;;;;186.88;63.95;;;3.40;99.90;;;;;;5114014;28;20422;-67
2022/01/12 02:53:43;;;;;;;201.52;65.75;;;3.30;99.90;;;;;;5114972;28;20053;-67
2022/01/12 02:56:14;;;;;;;303.00;77.45;;;3.40;99.90;;;;;;5113612;28;20077;-66
2022/01/12 02:58:41;;;;;;;238.45;70.38;;;3.20;99.90;;;;;;5114903;28;20111;-67
2022/01/12 03:03:57;;;;;;;274.65;74.15;;;3.30;99.90;;;;;;5113848;28;20054;-67
2022/01/12 03:06:29;;;;;;;252.20;71.97;;;3.30;99.90;;;;;;5114938;28;20123;-67
2022/01/12 03:08:56;;;;;;;435.50;92.95;;;3.80;99.90;;;;;;5113645;28;20135;-67
2022/01/12 03:11:23;;;;;;;327.95;79.20;;;3.70;99.90;;;;;;5114784;28;20094;-67
2022/01/12 03:13:53;;;;;;;407.00;85.60;;;3.60;99.90;;;;;;5115167;28;20452;-67
2022/01/12 03:16:23;;;;;;;473.85;95.43;;;3.50;99.90;;;;;;5096355;28;20065;-66
2022/01/12 03:18:58;;;;;;;328.42;78.65;;;3.50;99.90;;;;;;5114912;28;20395;-66
2022/01/12 03:21:34;;;;;;;457.85;90.85;;;3.50;99.90;;;;;;5113319;28;20039;-67
2022/01/12 03:24:02;;;;;;;258.30;71.50;;;3.50;99.90;;;;;;5114424;28;20490;-67
2022/01/12 03:26:33;;;;;;;378.55;85.72;;;3.60;99.90;;;;;;5114615;28;20604;-67
2022/01/12 03:28:59;;;;;;;443.27;89.47;;;3.50;99.90;;;;;;5114807;28;20047;-67
2022/01/12 03:31:30;;;;;;;409.45;87.88;;;3.70;99.90;;;;;;5112938;28;20460;-67
2022/01/12 03:34:05;;;;;;;419.20;91.10;;;3.90;99.90;;;;;;5114567;28;20441;-67
2022/01/12 03:39:04;;;;;;;492.83;97.15;;;3.60;99.90;;;;;;5113563;28;20426;-67
2022/01/12 03:41:32;;;;;;;463.02;93.82;;;3.60;99.90;;;;;;5112597;28;20460;-67
2022/01/12 03:43:59;;;;;;;510.05;96.68;;;3.40;99.90;;;;;;5112292;28;20052;-67
2022/01/12 03:46:30;;;;;;;563.88;100.97;;;3.50;99.90;;;;;;5113682;28;20495;-67
2022/01/12 03:48:55;;;;;;;500.85;94.50;;;3.80;99.90;;;;;;5113587;28;20536;-67
2022/01/12 03:51:21;;;;;;;356.83;79.53;;;3.60;99.90;;;;;;5129330;27;20047;-67
2022/01/12 03:53:47;;;;;;;341.02;78.22;;;3.40;99.90;;;;;;5114172;28;20464;-67
2022/01/12 03:56:12;;;;;;;463.02;89.22;;;3.50;99.90;;;;;;5113710;28;20455;-66
2022/01/12 03:58:38;;;;;;;550.45;96.00;;;3.40;99.90;;;;;;5113551;28;20089;-67
2022/01/12 04:01:05;;;;;;;507.00;93.18;;;;;;;;;;5113553;28;20120;-67
2022/01/12 04:03:41;;;;;;;607.85;104.35;;;3.60;99.90;;;;;;5113274;28;20048;-67
2022/01/12 04:08:52;;;;;;;559.80;95.60;;;;;;;;;;5112236;28;20380;-66
2022/01/12 04:11:18;;;;;;;597.60;103.30;;;;;;;;;;5111850;28;20059;-67
2022/01/12 04:13:47;;;;;;;478.92;86.35;;;;;;;;;;5113225;28;20116;-67
2022/01/12 04:16:13;;;;;;;657.85;104.88;;;;;;;;;;5112867;28;20116;-67
2022/01/12 04:18:43;;;;;;;416.75;85.80;;;;;;;;;;5113091;28;20044;-67
2022/01/12 04:21:10;;;;;;;645.20;104.07;;;;;;;;;;5111684;28;20051;-67
2022/01/12 04:23:38;;;;;;;673.97;106.88;;;3.60;99.90;;;;;;5113029;28;20487;-67
2022/01/12 04:26:13;;;;;;;539.45;90.85;;;3.60;99.90;;;;;;5111732;28;20059;-67
2022/01/12 04:28:54;;;;;;;609.05;100.65;;;;;;;;;;5112894;28;20052;-67
2022/01/12 04:31:20;;;;;;;363.33;78.05;;;;;;;;;;5112862;28;20043;-67
2022/01/12 04:33:46;;;;;;;517.88;91.72;;;3.50;99.90;;;;;;5112906;28;20035;-66
2022/01/12 04:36:14;;;;;;;551.80;96.97;;;3.70;99.90;;;;;;5113136;28;20477;-67
2022/01/12 04:38:41;;;;;;;647.35;101.80;;;3.70;99.90;;;;;;5112763;28;20402;-67
2022/01/12 04:41:09;;;;;;;484.13;90.00;;;3.60;99.90;;;;;;5112497;28;20047;-67
2022/01/12 04:43:39;;;;;;;467.55;89.20;;;3.50;99.90;;;;;;5111198;28;20058;-67
2022/01/12 04:49:19;;;;;;;523.38;93.93;;;3.70;99.90;;;;;;5111555;28;20045;-67
2022/01/12 04:51:25;;;;;;;656.78;102.88;;;4.30;99.90;;;;;;5111973;28;20056;-66
2022/01/12 04:53:53;;;;;;;584.90;96.88;;;3.70;99.90;;;;;;5112743;27;20585;-66
2022/01/12 04:56:19;;;;;;;506.27;92.20;;;;;;;;;;5112681;28;20105;-67
2022/01/12 04:58:46;;;;;;;683.83;103.38;;;3.50;99.90;;;;;;5111386;28;20475;-67
2022/01/12 05:01:24;;;;;;;508.27;90.30;;;;;;;;;;5112811;28;20149;-67
2022/01/12 05:14:36;;;;;;;389.30;80.75;;;;;;;;;;5111922;28;20063;-67
2022/01/12 05:17:03;;;;;;;487.63;87.15;;;3.70;99.90;;;;;;5110728;28;20488;-67
2022/01/12 05:19:29;;;;;;;458.75;85.47;;;;;;;;;;5128088;27;20040;-67
2022/01/12 05:21:55;;;;;;;391.40;80.15;;;3.70;99.90;;;;;;5111740;28;20069;-67
2022/01/12 05:24:21;;;;;;;534.65;90.70;;;3.70;99.90;;;;;;5112303;28;20476;-67
2022/01/12 05:26:46;;;;;;;486.40;87.57;;;3.60;99.90;;;;;;5111704;28;20546;-67
2022/01/12 05:29:13;;;;;;;405.00;81.03;;;3.50;99.90;;;;;;5127321;27;20079;-68
2022/01/12 05:31:39;;;;;;;437.40;81.15;;;;;;;;;;5093150;28;20047;-67
2022/01/12 05:34:05;;;;;;;328.38;72.15;;;3.60;99.90;;;;;;5110984;28;20042;-67
2022/01/12 05:36:32;;;;;;;481.25;85.35;;;3.80;99.90;;;;;;5110890;28;20048;-67
2022/01/12 05:38:59;;;;;;;479.10;84.47;;;3.60;99.90;;;;;;5108998;28;20096;-67
2022/01/12 05:41:26;;;;;;;309.13;71.18;;;3.20;99.90;;;;;;5110522;27;20042;-67
2022/01/12 05:43:53;;;;;;;303.98;70.40;;;;;;;;;;5110500;28;20054;-67
2022/01/12 05:46:23;;;;;;;326.63;71.45;;;;;;;;;;5110062;28;20055;-67
2022/01/12 05:51:34;;;;;;;317.15;68.68;;;3.10;99.90;;;;;;5109703;28;20052;-67
2022/01/12 05:54:00;;;;;;;228.07;58.33;;;;;;;;;;5111152;28;20439;-67
2022/01/12 05:56:26;;;;;;;273.88;62.47;;;3.90;99.90;;;;;;5110078;28;20047;-67
2022/01/12 05:58:53;;;;;;;378.73;71.28;;;3.70;99.90;;;;;;5111482;28;20048;-67
2022/01/12 06:01:19;;;;;;;359.17;68.47;;;3.20;99.90;;;;;;5101010;28;20039;-67
2022/01/12 06:03:45;;;;;;;332.48;70.15;;;3.10;99.90;;;;;;5090805;28;20071;-67
2022/01/12 06:06:11;;;;;;;408.10;76.07;;;3.30;99.90;;;;;;5118604;27;20522;-67
2022/01/12 06:08:39;;;;;;;349.35;71.47;;;3.20;99.90;;;;;;5108997;28;20124;-67
2022/01/12 06:11:05;;;;;;;317.77;68.22;;;3.40;99.90;;;;;;5107880;27;20051;-68
2022/01/12 06:13:31;;;;;;;291.20;66.70;;;;;;;;;;5111393;28;20499;-67
2022/01/12 06:15:57;;;;;;;327.02;71.10;;;3.30;99.90;;;;;;5109478;28;20035;-67
2022/01/12 06:18:26;;;;;;;245.10;65.90;;;;;;;;;;5109613;28;20039;-67
2022/01/12 06:20:52;;;;;;;336.30;70.20;;;3.50;99.90;;;;;;5107821;28;20086;-67
2022/01/12 06:23:19;;;;;;;324.55;72.75;;;3.10;99.90;;;;;;5108489;27;20048;-67
2022/01/12 06:25:45;;;;;;;290.63;69.53;;;3.30;99.90;;;;;;5109409;28;20050;-67
2022/01/12 06:33:35;;;;;;;421.25;80.78;;;3.30;99.90;;;;;;5107326;28;20078;-67
2022/01/12 06:36:01;;;;;;;401.63;80.53;;;;;;;;;;5106883;28;20051;-67
2022/01/12 06:38:29;;;;;;;326.98;73.25;;;3.50;99.90;;;;;;5107717;28;20031;-67
2022/01/12 06:40:55;;;;;;;312.77;73.93;;;3.40;99.90;;;;;;5108400;28;20036;-67
2022/01/12 06:43:21;;;;;;;362.15;78.18;;;3.40;99.90;;;;;;5108236;28;20574;-67
2022/01/12 06:45:49;;;;;;;299.13;72.70;;;3.40;99.90;;;;;;5091344;28;20078;-67
2022/01/12 06:48:15;;;;;;;374.35;79.35;;;;;;;;;;5109378;28;20380;-68
2022/01/12 06:50:40;;;;;;;443.67;83.35;;;3.60;99.90;;;;;;5108587;28;20067;-67
2022/01/12 06:53:06;;;;;;;428.88;83.47;;;3.40;99.90;;;;;;5107942;28;20044;-67
2022/01/12 06:55:32;;;;;;;404.05;82.55;;;3.20;99.90;;;;;;5110711;28;20124;-67
2022/01/12 06:57:58;;;;;;;360.67;78.47;;;;;;;;;;5106360;28;20027;-68
2022/01/12 07:00:24;;;;;;;306.33;69.78;;;;;;;;;;5109298;28;20054;-68
2022/01/12 07:02:51;;;;;;;349.10;75.05;;;;;;;;;;5109385;28;20079;-68
2022/01/12 07:05:17;;;;;;;302.73;70.78;;;;;;;;;;5107881;28;20059;-68
2022/01/12 07:07:43;;;;;;;315.80;69.40;;;;;;;;;;5116620;28;20055;-67
2022/01/12 07:10:09;;;;;;;303.52;66.28;;;3.50;99.90;;;;;;5119805;28;20147;-67
2022/01/12 07:12:38;;;;;;;241.98;61.83;;;3.60;99.90;;;;;;5109516;28;20078;-68
2022/01/12 07:15:04;;;;;;;242.63;59.25;;;3.30;99.90;;;;;;5126556;27;20075;-67
2022/01/12 07:17:30;;;;;;;206.73;55.40;;;3.40;99.90;;;;;;5113136;28;20122;-67
2022/01/12 07:19:56;;;;;;;322.83;64.65;;;;;;;;;;5111192;28;20467;-67
2022/01/12 07:22:21;;;;;;;294.10;63.20;;;3.30;99.90;;;;;;5111697;28;20055;-68
2022/01/12 07:24:48;;;;;;;256.23;58.42;;;;;;;;;;5113383;28;20552;-67
2022/01/12 07:27:14;;;;;;;202.00;54.65;;;;;;;;;;5113175;28;20051;-67
2022/01/12 07:29:40;;;;;;;327.35;65.10;;;;;;;;;;5113109;28;20459;-67
2022/01/12 07:32:06;;;;;;;273.50;59.63;;;2.90;99.90;;;;;;5112879;28;20043;-67
2022/01/12 07:34:35;;;;;;;280.05;59.70;;;;;;;;;;5112936;28;20084;-67
2022/01/12 07:37:01;;;;;;;276.77;59.50;;;2.80;99.90;;;;;;5113038;28;20051;-67
2022/01/12 07:39:27;;;;;;;301.85;61.10;;;3.00;99.90;;;;;;5112845;28;20141;-67
2022/01/12 07:41:57;;;;;;;294.65;61.70;;;;;;;;;;5112917;28;20048;-67
2022/01/12 07:44:23;;;;;;;243.35;56.92;;;;;;;;;;5111496;28;20483;-68
2022/01/12 07:46:49;;;;;;;245.55;58.10;;;2.80;99.90;;;;;;5110956;28;20552;-67
2022/01/12 07:49:15;;;;;;;280.95;61.72;;;3.20;99.90;;;;;;5111653;28;20043;-67
2022/01/12 07:51:41;;;;;;;277.55;61.50;;;;;;;;;;5111146;28;20079;-67
2022/01/12 07:54:07;;;;;;;201.57;53.38;;;;;;;;;;5111360;28;20047;-67
2022/01/12 07:56:33;;;;;;;169.45;50.00;;;;;;;;;;5111659;28;20390;-68
2022/01/12 07:58:59;;;;;;;325.45;62.72;;;;;;;;;;5094768;28;20039;-67
2022/01/12 08:01:25;;;;;;;331.73;66.68;;;2.90;99.90;;;;;;5110404;28;20114;-67
2022/01/12 08:03:51;;;;;;;436.98;75.03;;;2.80;99.90;;;;;;5111243;28;20048;-67
2022/01/12 08:06:17;;;;;;;349.20;69.20;;;2.80;99.90;;;;;;5108032;28;20062;-67
2022/01/12 08:08:44;;;;;;;243.95;60.65;;;;;;;;;;5107925;28;20387;-67
2022/01/12 08:11:10;;;;;;;321.38;65.18;;;;;;;;;;5092447;28;20047;-68
2022/01/12 08:13:36;;;;;;;172.45;51.25;;;;;;;;;;5108264;27;20043;-67
2022/01/12 08:16:01;;;;;;;351.20;65.10;;;3.00;99.90;;;;;;5110617;28;20066;-67
2022/01/12 08:18:27;;;;;;;409.27;68.53;;;;;;;;;;5110775;28;20086;-67
2022/01/12 08:20:55;;;;;;;341.35;61.17;;;3.10;99.90;;;;;;5110043;28;20059;-67
2022/01/12 08:23:21;;;;;;;288.83;57.55;;;;;;;;;;5111721;28;20050;-67
2022/01/12 08:25:47;;;;;;;483.02;66.43;;;2.50;99.90;;;;;;5112128;28;20056;-68
2022/01/12 08:28:13;;;;;;;380.75;63.03;;;;;;;;;;5111347;28;20406;-68
2022/01/12 08:30:39;;;;;;;277.42;55.55;;;;;;;;;;5111642;28;20150;-67
2022/01/12 08:33:07;;;;;;;260.30;56.92;;;2.60;99.90;;;;;;5111801;28;20036;-67
2022/01/12 08:35:33;;;;;;;492.33;67.20;;;2.70;99.90;;;;;;5110756;28;20044;-67
2022/01/12 08:38:01;;;;;;;496.75;71.43;;;;;;;;;;5109879;28;20039;-67
2022/01/12 08:40:27;;;;;;;431.90;66.88;;;2.30;99.90;;;;;;5110181;28;20042;-68
2022/01/12 08:42:53;;;;;;;339.38;57.22;;;;;;;;;;5111201;28;20513;-67
2022/01/12 08:45:19;;;;;;;377.10;56.33;;;2.70;99.90;;;;;;5110346;28;20039;-68
2022/01/12 08:47:46;;;;;;;286.27;57.83;;;2.70;99.90;;;;;;5099405;28;20470;-67
2022/01/12 08:50:13;;;;;;;192.02;50.67;;;2.70;99.90;;;;;;5110589;28;20517;-68
2022/01/12 08:52:44;;;;;;;265.15;54.92;;;2.30;99.90;;;;;;5110064;28;20040;-67
2022/01/12 08:55:11;;;;;;;235.43;53.90;;;2.90;99.90;;;;;;5092295;28;20120;-67
2022/01/12 08:57:37;;;;;;;231.32;54.85;;;;;;;;;;5110388;28;20404;-67
2022/01/12 09:00:06;;;;;;;164.15;49.47;;;2.60;99.90;;;;;;5109521;28;20035;-67
2022/01/12 09:02:32;;;;;;;177.82;50.05;;;3.20;99.90;;;;;;5118320;27;20043;-67
2022/01/12 09:04:57;;;;;;;145.15;46.17;;;2.90;99.90;;;;;;5117914;27;20035;-67
2022/01/12 09:07:23;;;;;;;261.25;57.50;;;4.10;99.90;;;;;;5091736;28;20066;-67
2022/01/12 09:09:49;;;;;;;316.70;58.40;;;3.40;99.90;;;;;;5109237;28;20062;-67
2022/01/12 09:12:15;;;;;;;278.42;58.92;;;3.00;99.90;;;;;;5109772;28;20092;-67
2022/01/12 09:14:40;;;;;;;202.25;53.42;;;2.90;99.90;;;;;;5108895;28;20069;-67
2022/01/12 09:17:15;;;;;;;263.77;57.38;;;3.70;99.90;;;;;;5108938;28;20438;-67
2022/01/12 09:19:41;;;;;;;184.60;48.45;;;3.40;99.90;;;;;;5108590;28;20039;-67
2022/01/12 09:22:07;;;;;;;247.27;57.00;;;3.70;99.90;;;;;;5110249;28;20539;-67
2022/01/12 09:24:33;;;;;;;220.68;53.13;;;;;;;;;;5110387;28;20127;-67
2022/01/12 09:27:00;;;;;;;221.35;51.35;;;;;;;;;;5110494;28;20039;-68
2022/01/12 09:29:26;;;;;;;236.70;52.83;;;;;;;;;;5109944;28;20507;-68
2022/01/12 09:31:52;;;;;;;228.05;52.28;;;3.70;99.90;;;;;;5093029;28;20085;-67
2022/01/12 09:34:17;;;;;;;231.65;51.70;;;3.90;99.90;;;;;;5110140;28;20039;-67
2022/01/12 09:36:45;;;;;;;210.93;50.08;;;3.70;99.90;;;;;;5111416;28;20031;-67
2022/01/12 09:39:11;;;;;;;234.27;49.65;;;;;;;;;;5111203;28;20046;-67
2022/01/12 09:41:38;;;;;;;202.13;47.30;;;;;;;;;;5110118;28;20109;-67
2022/01/12 09:44:04;;;;;;;197.13;47.38;;;4.20;99.90;;;;;;5111308;28;20043;-68
2022/01/12 09:46:30;;;;;;;214.57;48.17;;;;;;;;;;5109936;28;20424;-70
2022/01/12 09:48:57;;;;;;;185.65;44.70;;;4.30;99.90;;;;;;5110198;28;20062;-68
2022/01/12 09:51:24;;;;;;;187.07;45.33;;;4.30;99.90;;;;;;5110523;28;20051;-68
2022/01/12 09:53:51;;;;;;;177.05;43.03;;;4.40;99.90;;;;;;5109116;28;20048;-68
2022/01/12 09:56:20;;;;;;;152.82;38.85;;;4.60;99.90;;;;;;5110073;28;20059;-68
2022/01/12 09:58:48;;;;;;;148.23;39.08;;;4.50;99.90;;;;;;5106344;28;20123;-68
2022/01/12 10:01:28;;;;;;;156.10;38.53;;;4.70;99.90;;;;;;5109932;28;20079;-68
2022/01/12 10:04:16;;;;;;;160.82;39.72;;;4.70;99.90;;;;;;5109034;28;20074;-67
2022/01/12 10:06:48;;;;;;;153.32;38.90;;;4.60;99.90;;;;;;5109329;28;20142;-68
2022/01/12 10:09:16;;;;;;;137.65;36.55;;;4.30;99.90;;;;;;5109738;28;20130;-68
2022/01/12 10:11:53;;;;;;;133.70;35.67;;;4.40;99.90;;;;;;5105907;28;20135;-68
2022/01/12 10:14:19;;;;;;;143.50;35.47;;;4.70;99.90;;;;;;5109722;28;20560;-68
2022/01/12 10:16:57;;;;;;;131.95;34.10;;;4.70;99.90;;;;;;5110748;28;20132;-68
2022/01/12 10:19:27;;;;;;;130.60;32.30;;;4.90;99.90;;;;;;5109663;28;20039;-68
2022/01/12 10:21:53;;;;;;;117.68;30.20;;;4.70;99.90;;;;;;5110674;28;20039;-68
2022/01/12 10:24:20;;;;;;;127.43;30.67;;;;;;;;;;5109633;28;20445;-68
2022/01/12 10:26:48;;;;;;;119.32;27.15;;;4.40;99.90;;;;;;5108787;28;20052;-68
2022/01/12 10:29:14;;;;;;;109.55;26.02;;;;;;;;;;5090991;28;20094;-68
2022/01/12 10:31:48;;;;;;;104.05;25.83;;;5.20;99.90;;;;;;5090228;28;20444;-68
2022/01/12 10:34:15;;;;;;;113.35;25.58;;;6.40;99.90;;;;;;5110304;28;20592;-68
2022/01/12 10:36:43;;;;;;;89.18;23.63;;;5.00;99.90;;;;;;5105255;28;20040;-68
2022/01/12 10:39:11;;;;;;;104.95;23.75;;;5.20;99.90;;;;;;5108658;28;20051;-68
2022/01/12 10:41:41;;;;;;;83.90;21.73;;;5.30;99.90;;;;;;5109339;28;20057;-68
2022/01/12 10:44:07;;;;;;;82.20;20.50;;;;;;;;;;5109966;28;20048;-68
2022/01/12 10:46:33;;;;;;;69.65;17.40;;;;;;;;;;5108252;28;20051;-68
2022/01/12 10:48:59;;;;;;;82.60;18.52;;;5.20;99.90;;;;;;5110653;28;20124;-68
2022/01/12 10:51:29;;;;;;;70.40;17.75;;;5.30;99.90;;;;;;5113281;28;20459;-68
2022/01/12 10:54:01;;;;;;;65.50;15.90;;;5.40;99.90;;;;;;5109860;28;20650;-68
2022/01/12 10:56:27;;;;;;;65.55;15.52;;;5.40;99.90;;;;;;5111490;28;20492;-68
2022/01/12 10:58:56;;;;;;;62.13;15.25;;;5.20;99.90;;;;;;5113543;28;20032;-68
2022/01/12 11:01:24;;;;;;;50.65;13.15;;;5.60;99.90;;;;;;5113672;28;20044;-68
2022/01/12 11:03:50;;;;;;;63.00;13.85;;;5.50;99.90;;;;;;5113592;28;20110;-68
2022/01/12 11:06:20;;;;;;;48.75;13.43;;;;;;;;;;5113174;28;20056;-68
2022/01/12 11:08:49;;;;;;;52.30;12.13;;;5.50;99.90;;;;;;5111510;28;20168;-68
2022/01/12 11:11:19;;;;;;;54.70;12.63;;;5.60;99.90;;;;;;5112928;28;20066;-68
2022/01/12 11:13:48;;;;;;;53.72;12.27;;;5.20;99.90;;;;;;5114590;27;20067;-68
2022/01/12 11:16:15;;;;;;;48.72;11.88;;;5.60;99.90;;;;;;5112417;28;20091;-68
2022/01/12 11:18:41;;;;;;;53.72;12.18;;;5.50;99.90;;;;;;5113911;28;20487;-68
2022/01/12 11:21:18;;;;;;;50.47;12.23;;;5.70;99.90;;;;;;5113725;28;20043;-68
2022/01/12 11:23:46;;;;;;;50.20;13.23;;;5.50;99.90;;;;;;5113324;28;20066;-68
2022/01/12 11:26:12;;;;;;;53.20;11.65;;;;;;;;;;5111545;28;20047;-68
2022/01/12 11:28:39;;;;;;;53.25;11.50;;;;;;;;;;5113197;28;20042;-68
2022/01/12 11:31:05;;;;;;;42.97;10.73;;;5.90;99.90;;;;;;5111933;28;20136;-68
2022/01/12 11:33:31;;;;;;;49.63;11.20;;;5.40;99.90;;;;;;5113177;28;20494;-68
2022/01/12 11:36:02;;;;;;;49.95;11.43;;;5.70;99.90;;;;;;5112516;28;20024;-68
2022/01/12 11:38:31;;;;;;;48.78;11.43;;;5.90;99.90;;;;;;5113240;28;20122;-68
2022/01/12 11:41:14;;;;;;;47.75;12.15;;;5.70;99.90;;;;;;5112714;28;20075;-68
2022/01/12 11:43:57;;;;;;;44.60;11.73;;;5.90;99.90;;;;;;5113736;28;20406;-68
2022/01/12 11:46:26;;;;;;;45.50;11.95;;;5.80;99.90;;;;;;5113405;27;20039;-68
2022/01/12 11:48:57;;;;;;;52.58;11.15;;;5.50;99.90;;;;;;5092861;28;20488;-68
2022/01/12 11:51:35;;;;;;;44.47;10.90;;;5.80;99.90;;;;;;5107754;28;20483;-68
2022/01/12 11:54:09;;;;;;;57.35;11.98;;;5.70;99.90;;;;;;5111774;28;20047;-68
2022/01/12 11:56:36;;;;;;;51.25;11.32;;;5.80;99.90;;;;;;5111273;28;20044;-68
2022/01/12 11:59:13;;;;;;;46.97;10.73;;;6.10;99.90;;;;;;5112561;28;20032;-68
2022/01/12 12:01:49;;;;;;;48.13;10.95;;;5.60;99.90;;;;;;5111923;28;20111;-67
2022/01/12 12:04:30;;;;;;;49.78;11.45;;;6.10;99.90;;;;;;5112516;28;20123;-68
2022/01/12 12:07:02;;;;;;;47.38;10.70;;;6.00;99.90;;;;;;5112090;28;20130;-67
2022/01/12 12:09:43;;;;;;;51.17;11.88;;;6.00;99.90;;;;;;5109504;28;20411;-68
2022/01/12 12:12:19;;;;;;;39.00;10.75;;;6.00;99.90;;;;;;5121227;27;20073;-68
2022/01/12 12:14:47;;;;;;;47.53;11.27;;;6.00;99.90;;;;;;5110677;28;20043;-68
2022/01/12 12:17:15;;;;;;;46.70;11.35;;;6.10;99.90;;;;;;5110574;28;20491;-68
2022/01/12 12:19:41;;;;;;;50.15;12.20;;;5.80;99.90;;;;;;5111859;28;20039;-68
2022/01/12 12:22:19;;;;;;;41.97;12.20;;;5.90;99.90;;;;;;5110741;28;20059;-68
2022/01/12 12:24:51;;;;;;;45.55;12.65;;;5.80;99.90;;;;;;5111048;28;20078;-68
2022/01/12 12:27:20;;;;;;;45.92;12.10;;;5.60;99.90;;;;;;5093852;28;20479;-68
2022/01/12 12:29:50;;;;;;;46.10;12.52;;;6.00;99.90;;;;;;5112158;28;20089;-69
2022/01/12 12:32:18;;;;;;;44.33;12.18;;;6.20;99.90;;;;;;5112227;28;20122;-69
2022/01/12 12:34:45;;;;;;;47.55;12.27;;;5.70;99.90;;;;;;5112216;28;20034;-69
2022/01/12 12:37:17;;;;;;;46.80;11.80;;;6.10;99.90;;;;;;5093378;28;20043;-69
2022/01/12 12:39:45;;;;;;;36.78;11.05;;;6.10;99.90;;;;;;5110210;28;20055;-69
2022/01/12 12:42:17;;;;;;;43.50;11.65;;;6.00;99.90;;;;;;5111722;28;20418;-69
2022/01/12 12:44:44;;;;;;;37.13;11.50;;;6.20;99.90;;;;;;5110198;28;20042;-69
2022/01/12 12:47:13;;;;;;;38.00;11.75;;;6.30;99.90;;;;;;5111062;28;20054;-69
2022/01/12 12:49:50;;;;;;;45.13;12.25;;;6.10;99.90;;;;;;5111001;28;20453;-69
2022/01/12 12:52:26;;;;;;;38.83;11.63;;;6.40;99.90;;;;;;5113722;27;20559;-69
2022/01/12 12:54:53;;;;;;;46.92;12.35;;;5.80;99.90;;;;;;5108239;28;20119;-69
2022/01/12 12:57:22;;;;;;;46.78;12.57;;;;;;;;;;5110847;28;20623;-69
2022/01/12 12:59:50;;;;;;;46.03;11.90;;;6.30;99.90;;;;;;5111072;28;20051;-69
2022/01/12 13:02:17;;;;;;;39.50;12.07;;;6.10;99.90;;;;;;5111737;28;20039;-69
2022/01/12 13:04:43;;;;;;;46.28;13.27;;;6.50;99.90;;;;;;5111153;28;20031;-69
2022/01/12 13:07:15;;;;;;;40.63;12.07;;;6.30;99.90;;;;;;5110748;27;20393;-69
2022/01/12 13:09:40;;;;;;;45.70;13.20;;;6.10;99.90;;;;;;5110856;28;20047;-69
2022/01/12 13:12:07;;;;;;;46.35;12.55;;;6.30;99.90;;;;;;5110603;28;20041;-69
2022/01/12 13:14:42;;;;;;;41.75;12.90;;;6.40;99.90;;;;;;5109081;28;20514;-69
2022/01/12 13:17:08;;;;;;;40.15;12.52;;;6.10;99.90;;;;;;5110957;28;20047;-69
2022/01/12 13:22:29;;;;;;;38.83;12.32;;;7.10;99.90;;;;;;5108756;28;20149;-69
2022/01/12 13:25:00;;;;;;;35.67;11.60;;;6.50;99.90;;;;;;5109280;28;20445;-69
2022/01/12 13:27:27;;;;;;;37.08;11.40;;;6.70;99.90;;;;;;5110248;28;20063;-69
2022/01/12 13:29:53;;;;;;;40.22;12.35;;;6.70;99.90;;;;;;5108006;28;20043;-69
2022/01/12 13:32:19;;;;;;;38.63;11.68;;;7.10;99.90;;;;;;5108929;28;20075;-69
2022/01/12 13:35:10;;;;;;;37.75;11.88;;;6.70;99.90;;;;;;5109556;28;20135;-69
2022/01/12 13:37:39;;;;;;;36.38;10.82;;;6.50;99.90;;;;;;5117307;27;20460;-69
2022/01/12 13:40:06;;;;;;;34.60;10.55;;;6.80;99.90;;;;;;5109678;28;21072;-69
2022/01/12 13:42:32;;;;;;;37.55;11.65;;;;;;;;;;5105917;28;20059;-69
2022/01/12 13:45:09;;;;;;;36.47;10.77;;;6.70;99.90;;;;;;5108555;28;20039;-69
2022/01/12 13:47:36;;;;;;;36.55;10.90;;;6.80;99.90;;;;;;5108579;28;20051;-69
2022/01/12 13:50:09;;;;;;;34.65;10.95;;;6.50;99.90;;;;;;5109698;28;20059;-69
2022/01/12 13:52:35;;;;;;;40.53;11.25;;;;;;;;;;5109131;28;20047;-70
2022/01/12 13:55:13;;;;;;;45.80;11.32;;;6.10;99.90;;;;;;5107592;28;20044;-69
2022/01/12 13:57:40;;;;;;;29.70;11.35;;;;;;;;;;5109687;28;20065;-69
2022/01/12 14:00:15;;;;;;;40.83;12.00;;;6.30;99.90;;;;;;5109859;28;20047;-70
2022/01/12 14:02:42;;;;;;;41.75;11.50;;;6.40;99.90;;;;;;5109818;28;20043;-70
2022/01/12 14:05:16;;;;;;;44.70;12.98;;;6.80;99.90;;;;;;5108421;28;20415;-70
2022/01/12 14:07:48;;;;;;;48.72;13.63;;;6.60;99.90;;;;;;5108325;28;20052;-69
2022/01/12 14:10:15;;;;;;;47.97;13.75;;;6.50;99.90;;;;;;5108257;28;20116;-69
2022/01/12 14:12:50;;;;;;;40.67;12.77;;;6.60;99.90;;;;;;5109721;27;20061;-69
2022/01/12 14:15:26;;;;;;;47.53;13.15;;;6.20;99.90;;;;;;5107337;28;20039;-69
2022/01/12 14:17:54;;;;;;;53.20;13.85;;;6.40;99.90;;;;;;5110045;28;20043;-69
2022/01/12 14:20:37;;;;;;;45.67;12.88;;;6.60;99.90;;;;;;5109461;28;20131;-69
2022/01/12 14:23:08;;;;;;;42.95;13.45;;;6.40;99.90;;;;;;5107205;28;20086;-69
2022/01/12 14:25:44;;;;;;;50.25;14.35;;;6.40;99.90;;;;;;5107844;28;20078;-69
2022/01/12 14:28:16;;;;;;;51.70;13.82;;;6.20;99.90;;;;;;5107111;28;20046;-69